Terminal Aerodrome Forecast
Issued by NWS

Home | Current Version | Previous Version | Text Only | Print | Product List | Glossary On
Versions: 1 2 3 4 5 6 7 8 9 10 11 12 13 14 15 16 17 18 19 20 21 22 23 24 25 26 27 28 29 30 31 32
000
FTUS41 KPBZ 011138
TAFAGC
TAF
KAGC 011138Z 0112/0212 18007KT 4SM -RA BR OVC007
     FM011400 19007KT P6SM VCSH OVC015
     FM011700 21006KT P6SM VCTS BKN035CB
     FM020000 VRB03KT P6SM VCSH BKN025
     FM020300 VRB03KT 4SM -SHRA BR OVC010=

USA.gov is the U.S. government's official web portal to all federal, state and local government web resources and services.